createdAt,value
2022-12-20T00:00:00.131Z,12.15
2022-12-20T00:02:02.463Z,12.48
2022-12-20T00:04:08.175Z,11.80
2022-12-20T00:06:11.235Z,11.35
2022-12-20T00:08:13.598Z,11.90
2022-12-20T00:10:15.269Z,11.65
2022-12-20T00:12:17.463Z,11.80
2022-12-20T00:14:19.259Z,11.93
2022-12-20T00:16:24.630Z,11.30
2022-12-20T00:18:26.358Z,11.10
2022-12-20T00:20:28.559Z,11.07
2022-12-20T00:22:31.278Z,11.48
2022-12-20T00:24:33.173Z,11.73
2022-12-20T00:26:35.969Z,11.55
2022-12-20T00:28:38.884Z,11.85
2022-12-20T00:30:40.593Z,11.40
2022-12-20T00:32:42.879Z,11.25
2022-12-20T00:34:44.643Z,11.15
2022-12-20T00:36:46.390Z,11.02
2022-12-20T00:38:50.051Z,11.32
2022-12-20T00:41:13.349Z,10.52
2022-12-20T00:43:15.038Z,11.75
2022-12-20T00:45:16.840Z,10.85
2022-12-20T00:47:18.653Z,11.40
2022-12-20T00:49:20.465Z,10.50
2022-12-20T00:51:26.250Z,10.23
2022-12-20T00:53:28.705Z,11.75
2022-12-20T00:55:30.331Z,11.20
2022-12-20T00:57:33.387Z,10.32
2022-12-20T00:59:36.531Z,10.40
2022-12-20T01:01:38.201Z,10.88
2022-12-20T01:03:40.204Z,10.77
2022-12-20T01:05:54.411Z,10.38
2022-12-20T01:07:56.043Z,10.13
2022-12-20T01:09:57.693Z,11.57
2022-12-20T01:11:59.395Z,9.98
2022-12-20T01:14:06.041Z,10.80
2022-12-20T01:16:09.891Z,10.02
2022-12-20T01:20:13.331Z,9.32
2022-12-20T01:22:14.939Z,9.90
2022-12-20T01:24:18.678Z,10.65
2022-12-20T01:26:22.912Z,10.13
2022-12-20T01:28:24.584Z,9.98
2022-12-20T01:30:26.331Z,10.57
2022-12-20T01:32:28.140Z,8.90
2022-12-20T01:34:29.813Z,9.60
2022-12-20T01:36:36.093Z,9.75
2022-12-20T01:38:37.985Z,10.20
2022-12-20T01:40:39.673Z,9.88
2022-12-20T01:42:41.331Z,9.63
2022-12-20T01:44:43.066Z,9.98
2022-12-20T01:46:47.172Z,8.95
2022-12-20T01:49:16.536Z,9.07
2022-12-20T01:51:19.307Z,9.77
2022-12-20T01:53:22.703Z,9.07
2022-12-20T01:55:25.947Z,10.30
2022-12-20T01:57:32.137Z,9.55
2022-12-20T01:59:35.821Z,10.27
2022-12-20T02:01:37.897Z,9.73
2022-12-20T02:03:40.629Z,9.38
2022-12-20T02:05:48.056Z,9.45
2022-12-20T02:07:54.350Z,13.77
2022-12-20T02:09:57.450Z,10.10
2022-12-20T02:12:02.430Z,10.60
2022-12-20T02:14:10.522Z,9.60
2022-12-20T02:16:15.709Z,10.43
2022-12-20T02:18:22.625Z,9.63
2022-12-20T02:20:48.161Z,9.30
2022-12-20T02:23:17.019Z,9.50
2022-12-20T02:25:27.686Z,9.45
2022-12-20T02:28:14.450Z,10.25
2022-12-20T02:30:25.005Z,9.98
2022-12-20T02:32:30.936Z,9.50
2022-12-20T02:34:34.324Z,9.77
2022-12-20T02:36:36.330Z,8.55
2022-12-20T02:38:42.988Z,9.77
2022-12-20T02:40:45.314Z,8.75
2022-12-20T02:42:48.661Z,10.20
2022-12-20T02:45:15.925Z,10.05
2022-12-20T02:47:41.185Z,9.73
2022-12-20T02:49:43.233Z,9.63
2022-12-20T02:51:47.524Z,10.00
2022-12-20T02:53:49.351Z,10.52
2022-12-20T02:56:15.189Z,9.88
2022-12-20T02:58:31.900Z,10.48
2022-12-20T03:00:38.853Z,9.90
2022-12-20T03:03:00.069Z,10.18
2022-12-20T03:05:02.792Z,9.73
2022-12-20T03:07:07.722Z,9.80
2022-12-20T03:09:10.541Z,10.20
2022-12-20T03:11:12.269Z,9.82
2022-12-20T03:13:14.871Z,10.05
2022-12-20T03:15:16.688Z,10.00
2022-12-20T03:17:18.741Z,10.05
2022-12-20T03:19:20.706Z,9.10
2022-12-20T03:21:22.506Z,10.15
2022-12-20T03:23:24.443Z,10.57
2022-12-20T03:25:26.456Z,11.52
2022-12-20T03:27:28.247Z,11.13
2022-12-20T03:29:29.921Z,9.73
2022-12-20T03:31:31.843Z,10.60
2022-12-20T03:33:33.759Z,10.23
2022-12-20T03:35:35.582Z,10.25
2022-12-20T03:37:37.349Z,10.68
2022-12-20T03:39:38.982Z,10.80
2022-12-20T03:41:42.584Z,11.73
2022-12-20T03:43:45.815Z,11.38
2022-12-20T03:45:47.841Z,10.20
2022-12-20T03:47:49.524Z,10.57
2022-12-20T03:49:52.135Z,10.93
2022-12-20T03:51:53.878Z,11.23
2022-12-20T03:53:55.752Z,11.05
2022-12-20T03:55:57.502Z,10.80
2022-12-20T03:58:00.359Z,11.77
2022-12-20T04:00:02.234Z,11.18
2022-12-20T04:02:04.485Z,10.98
2022-12-20T04:04:08.397Z,10.88
2022-12-20T04:06:10.043Z,11.20
2022-12-20T04:08:12.017Z,11.07
2022-12-20T04:10:15.298Z,11.00
2022-12-20T04:12:16.947Z,11.43
2022-12-20T04:14:18.648Z,12.95
2022-12-20T04:16:23.045Z,11.50
2022-12-20T04:18:24.727Z,11.73
2022-12-20T04:20:26.565Z,11.88
2022-12-20T04:22:28.178Z,11.85
2022-12-20T04:24:29.800Z,11.95
2022-12-20T04:26:31.596Z,11.60
2022-12-20T04:28:33.718Z,12.20
2022-12-20T04:30:36.619Z,12.25
2022-12-20T04:32:38.410Z,12.35
2022-12-20T04:34:40.082Z,12.73
2022-12-20T04:36:41.713Z,12.95
2022-12-20T04:38:43.382Z,12.75
2022-12-20T04:40:45.007Z,12.52
2022-12-20T04:42:46.698Z,12.82
2022-12-20T04:44:49.813Z,12.57
2022-12-20T04:46:51.620Z,13.18
2022-12-20T04:48:58.936Z,13.00
2022-12-20T04:51:01.140Z,12.00
2022-12-20T04:53:23.862Z,12.18
2022-12-20T04:55:25.534Z,13.23
2022-12-20T04:57:27.192Z,12.00
2022-12-20T04:59:28.887Z,12.57
2022-12-20T05:01:30.602Z,12.70
2022-12-20T05:03:32.435Z,11.63
2022-12-20T05:05:34.205Z,13.32
2022-12-20T05:07:36.969Z,12.02
2022-12-20T05:09:38.833Z,13.50
2022-12-20T05:11:40.557Z,11.57
2022-12-20T05:13:42.309Z,13.18
2022-12-20T05:15:44.080Z,11.82
2022-12-20T05:17:45.908Z,12.02
2022-12-20T05:19:47.888Z,12.63
2022-12-20T05:22:07.768Z,12.15
2022-12-20T05:24:28.312Z,12.32
2022-12-20T05:26:32.952Z,11.98
2022-12-20T05:28:34.729Z,11.82
2022-12-20T05:30:36.442Z,12.52
2022-12-20T05:32:38.389Z,12.63
2022-12-20T05:34:40.062Z,12.82
2022-12-20T05:36:41.741Z,12.50
2022-12-20T05:38:43.391Z,12.38
2022-12-20T05:40:47.950Z,13.38
2022-12-20T05:42:49.579Z,13.02
2022-12-20T05:44:51.669Z,12.80
2022-12-20T05:46:53.423Z,13.70
2022-12-20T05:48:55.277Z,12.68
2022-12-20T05:50:56.944Z,12.90
2022-12-20T05:52:58.577Z,14.23
2022-12-20T05:55:02.407Z,16.20
2022-12-20T05:57:04.137Z,13.77
2022-12-20T05:59:06.082Z,13.43
2022-12-20T06:01:10.416Z,14.35
2022-12-20T06:03:12.326Z,14.25
2022-12-20T06:05:13.998Z,13.25
2022-12-20T06:07:15.609Z,13.43
2022-12-20T06:09:17.323Z,13.05
2022-12-20T06:11:20.361Z,12.95
2022-12-20T06:13:24.829Z,13.38
2022-12-20T06:15:27.832Z,15.23
2022-12-20T06:17:29.485Z,15.37
2022-12-20T06:19:31.229Z,14.88
2022-12-20T06:21:32.913Z,14.35
2022-12-20T06:23:34.621Z,13.95
2022-12-20T06:25:38.329Z,13.27
2022-12-20T06:27:39.989Z,13.93
2022-12-20T06:29:41.801Z,13.73
2022-12-20T06:31:43.973Z,14.73
2022-12-20T06:33:45.688Z,12.82
2022-12-20T06:35:47.497Z,11.43
2022-12-20T06:37:49.137Z,10.25
2022-12-20T06:39:50.815Z,9.98
2022-12-20T06:41:52.516Z,10.05
2022-12-20T06:43:54.225Z,11.10
2022-12-20T06:45:57.501Z,10.23
2022-12-20T06:47:59.239Z,9.90
2022-12-20T06:50:00.892Z,11.02
2022-12-20T06:52:02.537Z,10.90
2022-12-20T06:54:04.220Z,10.05
2022-12-20T06:56:06.261Z,10.32
2022-12-20T06:58:07.929Z,10.63
2022-12-20T07:00:10.563Z,12.18
2022-12-20T07:02:12.768Z,12.02
2022-12-20T07:04:14.560Z,12.63
2022-12-20T07:06:16.533Z,11.52
2022-12-20T07:08:18.118Z,11.25
2022-12-20T07:10:19.807Z,11.00
2022-12-20T07:12:22.295Z,10.45
2022-12-20T07:14:24.352Z,10.82
2022-12-20T07:16:29.242Z,11.40
2022-12-20T07:18:31.643Z,11.23
2022-12-20T07:20:34.857Z,11.50
2022-12-20T07:22:36.640Z,10.50
2022-12-20T07:24:39.288Z,10.73
2022-12-20T07:26:41.214Z,12.23
2022-12-20T07:28:43.407Z,12.75
2022-12-20T07:30:46.613Z,13.30
2022-12-20T07:32:49.368Z,12.90
2022-12-20T07:34:51.004Z,12.55
2022-12-20T07:36:52.754Z,12.73
2022-12-20T07:38:54.585Z,12.48
2022-12-20T07:40:56.290Z,12.10
2022-12-20T07:42:57.959Z,11.70
2022-12-20T07:44:59.616Z,10.07
2022-12-20T07:47:01.451Z,11.60
2022-12-20T07:49:03.138Z,11.23
2022-12-20T07:51:10.581Z,11.13
2022-12-20T07:53:12.362Z,11.25
2022-12-20T07:55:15.285Z,11.25
2022-12-20T07:57:26.017Z,12.27
2022-12-20T07:59:31.345Z,10.85
2022-12-20T08:01:33.192Z,10.93
2022-12-20T08:03:41.561Z,11.70
2022-12-20T08:05:46.150Z,10.88
2022-12-20T08:07:51.137Z,10.68
2022-12-20T08:09:57.416Z,11.38
2022-12-20T08:11:59.487Z,10.85
2022-12-20T08:14:01.546Z,12.00
2022-12-20T08:16:03.344Z,10.38
2022-12-20T08:18:06.392Z,9.63
2022-12-20T08:20:09.025Z,11.10
2022-12-20T08:22:10.650Z,10.73
2022-12-20T08:24:12.327Z,11.43
2022-12-20T08:26:14.381Z,11.38
2022-12-20T08:28:16.262Z,10.43
2022-12-20T08:30:19.192Z,11.27
2022-12-20T08:32:21.440Z,11.00
2022-12-20T08:34:23.955Z,10.18
2022-12-20T08:36:26.264Z,11.90
2022-12-20T08:38:33.979Z,11.55
2022-12-20T08:40:35.617Z,12.50
2022-12-20T08:42:37.359Z,12.23
2022-12-20T08:44:39.582Z,14.90
2022-12-20T08:46:41.567Z,13.40
2022-12-20T08:48:43.236Z,10.45
2022-12-20T08:50:45.606Z,10.35
2022-12-20T08:52:47.581Z,10.65
2022-12-20T08:54:49.322Z,12.07
2022-12-20T08:56:52.343Z,12.02
2022-12-20T08:58:54.931Z,10.30
2022-12-20T09:01:06.356Z,9.55
2022-12-20T09:03:10.227Z,9.50
2022-12-20T09:05:12.109Z,8.57
2022-12-20T09:07:13.817Z,8.75
2022-12-20T09:09:16.565Z,19.55
2022-12-20T09:11:23.587Z,10.63
2022-12-20T09:13:25.325Z,8.63
2022-12-20T09:15:28.152Z,9.25
2022-12-20T09:17:30.202Z,8.88
2022-12-20T09:19:32.052Z,9.27
2022-12-20T09:21:34.871Z,9.50
2022-12-20T09:23:37.433Z,9.23
2022-12-20T09:25:39.274Z,8.38
2022-12-20T09:27:40.955Z,8.32
2022-12-20T09:29:42.970Z,9.63
2022-12-20T09:31:45.189Z,9.77
2022-12-20T09:33:47.100Z,10.23
2022-12-20T09:35:48.807Z,8.95
2022-12-20T09:37:50.424Z,8.90
2022-12-20T09:39:52.242Z,9.25
2022-12-20T09:41:54.322Z,8.70
2022-12-20T09:43:57.960Z,8.10
2022-12-20T09:46:02.658Z,8.25
2022-12-20T09:48:05.882Z,8.43
2022-12-20T09:50:08.204Z,7.70
2022-12-20T09:52:47.180Z,8.38
2022-12-20T09:55:10.365Z,9.45
2022-12-20T09:57:22.140Z,8.90
2022-12-20T09:59:25.238Z,8.57
2022-12-20T10:01:36.238Z,12.13
2022-12-20T10:03:40.033Z,9.73
2022-12-20T10:05:54.750Z,10.57
2022-12-20T10:08:23.956Z,9.20
2022-12-20T10:10:45.848Z,9.13
2022-12-20T10:13:14.422Z,9.85
2022-12-20T10:15:19.226Z,9.77
2022-12-20T10:17:44.840Z,9.50
2022-12-20T10:19:59.409Z,8.77
2022-12-20T10:22:26.695Z,9.68
2022-12-20T10:24:31.246Z,9.90
2022-12-20T10:26:33.420Z,9.93
2022-12-20T10:28:36.053Z,9.45
2022-12-20T10:30:37.708Z,9.77
2022-12-20T10:32:40.271Z,9.63
2022-12-20T10:34:52.511Z,9.38
2022-12-20T10:37:14.524Z,9.98
2022-12-20T10:39:16.231Z,9.82
2022-12-20T10:41:22.254Z,10.85
2022-12-20T10:43:25.185Z,9.88
2022-12-20T10:45:36.660Z,10.43
2022-12-20T10:47:42.110Z,9.32
2022-12-20T10:49:43.866Z,8.88
2022-12-20T10:51:53.116Z,11.63
2022-12-20T10:53:59.679Z,10.05
2022-12-20T10:56:21.086Z,9.77
2022-12-20T10:58:30.380Z,9.65
2022-12-20T11:00:33.212Z,9.07
2022-12-20T11:02:42.430Z,9.98
2022-12-20T11:05:01.040Z,8.10
2022-12-20T11:07:14.026Z,9.70
2022-12-20T11:09:33.770Z,9.48
2022-12-20T11:11:35.600Z,8.30
2022-12-20T11:13:37.437Z,8.50
2022-12-20T11:15:49.303Z,7.78
2022-12-20T11:17:58.537Z,8.02
2022-12-20T11:20:26.590Z,8.82
2022-12-20T11:22:43.475Z,8.05
2022-12-20T11:25:12.750Z,8.25
2022-12-20T11:27:24.462Z,7.97
2022-12-20T11:30:11.352Z,7.97
2022-12-20T11:32:48.656Z,8.32
2022-12-20T11:35:20.956Z,7.28
2022-12-20T11:37:27.079Z,7.88
2022-12-20T11:39:48.864Z,7.85
2022-12-20T11:42:01.160Z,7.65
2022-12-20T11:44:25.158Z,7.95
2022-12-20T11:46:40.972Z,8.20
2022-12-20T11:48:54.263Z,7.50
2022-12-20T11:51:07.576Z,7.93
2022-12-20T11:53:20.418Z,9.55
2022-12-20T11:55:27.669Z,8.00
2022-12-20T11:57:54.891Z,7.65
2022-12-20T11:59:59.041Z,7.60
2022-12-20T12:02:23.389Z,7.57
2022-12-20T12:04:31.792Z,7.55
2022-12-20T12:06:40.100Z,7.20
2022-12-20T12:08:47.100Z,7.97
2022-12-20T12:11:32.271Z,6.82
2022-12-20T12:13:36.571Z,7.18
2022-12-20T12:15:48.775Z,7.50
2022-12-20T12:18:06.086Z,7.55
2022-12-20T12:20:25.795Z,7.40
2022-12-20T12:22:33.364Z,7.38
2022-12-20T12:24:43.984Z,7.28
2022-12-20T12:26:45.681Z,7.90
2022-12-20T12:28:58.375Z,7.03
2022-12-20T12:31:07.269Z,7.03
2022-12-20T12:33:22.145Z,8.65
2022-12-20T12:35:35.003Z,9.35
2022-12-20T12:37:51.401Z,8.98
2022-12-20T12:40:37.128Z,8.40
2022-12-20T12:43:06.853Z,9.18
2022-12-20T12:45:29.341Z,9.77
2022-12-20T12:47:39.212Z,8.80
2022-12-20T12:49:41.217Z,9.73
2022-12-20T12:51:50.169Z,10.70
2022-12-20T12:53:54.115Z,10.43
2022-12-20T12:56:12.887Z,9.52
2022-12-20T12:58:23.560Z,8.68
2022-12-20T13:00:59.370Z,9.10
2022-12-20T13:03:06.074Z,9.35
2022-12-20T13:05:10.626Z,9.15
2022-12-20T13:07:33.959Z,9.38
2022-12-20T13:09:37.834Z,8.75
2022-12-20T13:13:48.684Z,7.78
2022-12-20T13:15:51.545Z,8.95
2022-12-20T13:18:00.530Z,9.07
2022-12-20T13:20:02.318Z,8.93
2022-12-20T13:22:13.388Z,9.10
2022-12-20T13:24:38.242Z,9.40
2022-12-20T13:26:51.060Z,8.80
2022-12-20T13:28:53.008Z,8.80
2022-12-20T13:31:04.907Z,8.07
2022-12-20T13:33:25.879Z,8.57
2022-12-20T13:35:47.778Z,8.80
2022-12-20T13:38:04.086Z,8.52
2022-12-20T13:40:06.719Z,8.23
2022-12-20T13:42:34.474Z,8.55
2022-12-20T13:44:41.505Z,9.02
2022-12-20T13:46:46.843Z,8.27
2022-12-20T13:48:54.232Z,8.45
2022-12-20T13:50:57.030Z,8.52
2022-12-20T13:52:59.231Z,7.85
2022-12-20T13:55:05.529Z,8.60
2022-12-20T13:57:08.096Z,8.43
2022-12-20T13:59:32.332Z,8.70
2022-12-20T14:01:36.215Z,9.38
2022-12-20T14:03:48.138Z,9.88
2022-12-20T14:06:01.699Z,8.25
2022-12-20T14:08:20.453Z,10.17
2022-12-20T14:10:27.774Z,8.30
2022-12-20T14:12:36.511Z,8.55
2022-12-20T14:14:49.879Z,8.80
2022-12-20T14:16:51.636Z,8.50
2022-12-20T14:19:05.310Z,8.95
2022-12-20T14:21:07.383Z,9.73
2022-12-20T14:23:18.826Z,9.80
2022-12-20T14:25:30.259Z,8.98
2022-12-20T14:27:34.948Z,9.80
2022-12-20T14:29:37.685Z,9.50
2022-12-20T14:31:42.064Z,9.80
2022-12-20T14:33:43.820Z,10.43
2022-12-20T14:35:49.580Z,9.88
2022-12-20T14:38:19.263Z,9.68
2022-12-20T14:40:21.573Z,9.52
2022-12-20T14:42:23.378Z,9.15
2022-12-20T14:44:28.358Z,10.23
2022-12-20T14:46:31.211Z,10.60
2022-12-20T14:48:32.949Z,11.70
2022-12-20T14:50:36.599Z,12.77
2022-12-20T14:52:39.513Z,10.43
2022-12-20T14:57:12.516Z,10.43
2022-12-20T14:59:18.326Z,10.95
2022-12-20T15:01:27.782Z,10.35
2022-12-20T15:03:29.913Z,9.00
2022-12-20T15:05:40.974Z,9.40
2022-12-20T15:07:42.682Z,9.68
2022-12-20T15:09:44.373Z,9.55
2022-12-20T15:11:46.865Z,9.27
2022-12-20T15:13:52.543Z,7.85
2022-12-20T15:15:54.261Z,7.43
2022-12-20T15:17:57.204Z,6.47
2022-12-20T15:19:59.552Z,8.68
2022-12-20T15:22:02.007Z,7.53
2022-12-20T15:24:10.262Z,6.50
2022-12-20T15:26:15.386Z,6.50
2022-12-20T15:28:22.743Z,6.57
2022-12-20T15:30:24.578Z,6.13
2022-12-20T15:32:29.746Z,6.35
2022-12-20T15:34:36.590Z,7.28
2022-12-20T15:36:38.742Z,6.35
2022-12-20T15:39:10.768Z,6.22
2022-12-20T15:41:06.528Z,7.47
2022-12-20T15:43:12.629Z,7.45
2022-12-20T15:45:14.778Z,8.10
2022-12-20T15:47:16.976Z,8.88
2022-12-20T15:49:41.974Z,8.60
2022-12-20T15:51:49.403Z,7.80
2022-12-20T15:53:51.196Z,7.00
2022-12-20T15:55:54.139Z,6.32
2022-12-20T15:57:55.745Z,7.50
2022-12-20T16:00:01.023Z,6.57
2022-12-20T16:02:03.826Z,6.47
2022-12-20T16:04:06.492Z,6.22
2022-12-20T16:06:13.099Z,6.80
2022-12-20T16:08:16.491Z,7.78
2022-12-20T16:10:18.326Z,8.10
2022-12-20T16:12:24.761Z,7.30
2022-12-20T16:14:27.661Z,7.15
2022-12-20T16:16:32.083Z,7.27
2022-12-20T16:18:34.921Z,7.18
2022-12-20T16:20:37.069Z,6.90
2022-12-20T16:22:38.740Z,6.95
2022-12-20T16:24:40.782Z,7.72
2022-12-20T16:26:43.263Z,8.10
2022-12-20T16:28:45.745Z,7.47
2022-12-20T16:30:52.953Z,9.15
2022-12-20T16:32:55.387Z,9.73
2022-12-20T16:34:57.052Z,11.45
2022-12-20T16:36:58.707Z,12.60
2022-12-20T16:39:00.384Z,13.95
2022-12-20T16:41:18.486Z,16.15
2022-12-20T16:43:20.092Z,16.63
2022-12-20T16:45:24.360Z,17.10
2022-12-20T16:47:26.457Z,16.38
2022-12-20T16:49:28.368Z,17.45
2022-12-20T16:51:35.724Z,16.55
2022-12-20T16:54:02.181Z,16.45
2022-12-20T16:55:59.198Z,17.67
2022-12-20T16:58:00.987Z,17.15
2022-12-20T17:00:03.096Z,17.73
2022-12-20T17:02:27.511Z,18.05
2022-12-20T17:04:29.342Z,18.13
2022-12-20T17:06:31.239Z,16.45
2022-12-20T17:10:53.008Z,12.57
2022-12-20T17:12:55.290Z,13.63
2022-12-20T17:14:57.039Z,11.18
2022-12-20T17:16:58.773Z,11.50
2022-12-20T17:19:01.525Z,11.35
2022-12-20T17:21:05.122Z,11.13
2022-12-20T17:23:10.040Z,10.80
2022-12-20T17:25:20.780Z,10.70
2022-12-20T17:27:22.504Z,8.45
2022-12-20T17:29:24.125Z,9.82
2022-12-20T17:31:39.581Z,9.50
2022-12-20T17:33:41.285Z,10.38
2022-12-20T17:35:43.923Z,8.38
2022-12-20T17:37:47.864Z,8.68
2022-12-20T17:41:52.278Z,7.63
2022-12-20T17:43:54.755Z,7.95
2022-12-20T17:45:57.749Z,8.48
2022-12-20T17:47:59.642Z,7.30
2022-12-20T17:50:01.331Z,7.60
2022-12-20T17:52:04.221Z,7.97
2022-12-20T17:54:05.946Z,8.32
2022-12-20T17:56:16.294Z,9.00
2022-12-20T17:58:17.904Z,7.65
2022-12-20T18:00:23.716Z,8.18
2022-12-20T18:02:26.317Z,7.57
2022-12-20T18:04:28.513Z,30.55
2022-12-20T18:06:32.032Z,23.60
2022-12-20T18:08:33.765Z,26.58
2022-12-20T18:10:36.659Z,26.42
2022-12-20T18:12:39.112Z,64.03
2022-12-20T18:14:41.004Z,34.72
2022-12-20T18:16:42.811Z,26.42
2022-12-20T18:18:44.730Z,45.58
2022-12-20T18:20:46.454Z,52.17
2022-12-20T18:22:48.775Z,59.05
2022-12-20T18:24:50.510Z,46.78
2022-12-20T18:26:53.472Z,35.95
2022-12-20T18:29:02.236Z,48.80
2022-12-20T18:31:05.993Z,43.53
2022-12-20T18:33:07.773Z,46.88
2022-12-20T18:35:10.007Z,45.30
2022-12-20T18:37:11.745Z,44.40
2022-12-20T18:39:13.935Z,43.55
2022-12-20T18:41:23.966Z,43.90
2022-12-20T18:43:27.505Z,46.47
2022-12-20T18:45:29.255Z,49.80
2022-12-20T18:47:32.515Z,28.15
2022-12-20T18:49:35.073Z,25.33
2022-12-20T18:51:37.369Z,25.10
2022-12-20T18:53:40.801Z,25.40
2022-12-20T18:55:43.813Z,26.05
2022-12-20T18:57:45.532Z,36.10
2022-12-20T18:59:47.480Z,40.08
2022-12-20T19:01:49.869Z,40.30
2022-12-20T19:03:52.701Z,39.42
2022-12-20T19:05:55.569Z,40.28
2022-12-20T19:07:57.427Z,40.40
2022-12-20T19:09:59.180Z,40.97
2022-12-20T19:12:01.002Z,41.80
2022-12-20T19:14:03.845Z,40.13
2022-12-20T19:16:12.081Z,37.58
2022-12-20T19:18:14.425Z,30.42
2022-12-20T19:20:16.603Z,28.48
2022-12-20T19:22:18.531Z,26.38
2022-12-20T19:24:20.170Z,28.02
2022-12-20T19:26:24.388Z,29.83
2022-12-20T19:28:26.223Z,31.75
2022-12-20T19:30:28.095Z,34.63
2022-12-20T19:32:29.973Z,34.42
2022-12-20T19:34:31.658Z,32.85
2022-12-20T19:36:42.141Z,33.20
2022-12-20T19:38:45.678Z,32.78
2022-12-20T19:40:53.930Z,33.45
2022-12-20T19:42:55.804Z,31.25
2022-12-20T19:44:57.480Z,31.45
2022-12-20T19:47:06.046Z,35.20
2022-12-20T19:49:07.939Z,33.30
2022-12-20T19:51:15.682Z,34.22
2022-12-20T19:53:17.386Z,33.40
2022-12-20T19:55:19.107Z,34.47
2022-12-20T19:57:20.787Z,32.25
2022-12-20T19:59:22.796Z,32.25
2022-12-20T20:01:27.182Z,32.50
2022-12-20T20:03:30.896Z,34.72
2022-12-20T20:05:34.944Z,35.88
2022-12-20T20:07:36.576Z,34.67
2022-12-20T20:09:38.874Z,41.83
2022-12-20T20:11:40.761Z,33.53
2022-12-20T20:13:42.465Z,33.08
2022-12-20T20:15:50.793Z,30.27
2022-12-20T20:17:52.502Z,31.25
2022-12-20T20:19:54.242Z,31.02
2022-12-20T20:21:56.152Z,29.85
2022-12-20T20:23:57.858Z,31.58
2022-12-20T20:26:00.211Z,33.38
2022-12-20T20:28:02.983Z,32.47
2022-12-20T20:30:07.101Z,35.40
2022-12-20T20:32:09.183Z,37.17
2022-12-20T20:34:10.929Z,39.53
2022-12-20T20:36:14.457Z,37.63
2022-12-20T20:38:16.196Z,42.13
2022-12-20T20:40:18.297Z,39.30
2022-12-20T20:42:23.400Z,37.20
2022-12-20T20:44:25.701Z,36.63
2022-12-20T20:46:28.338Z,35.50
2022-12-20T20:48:33.424Z,36.38
2022-12-20T20:50:35.167Z,36.28
2022-12-20T20:52:36.905Z,36.85
2022-12-20T20:54:40.029Z,35.35
2022-12-20T20:56:42.107Z,38.08
2022-12-20T20:58:43.926Z,37.35
2022-12-20T21:00:45.569Z,38.42
2022-12-20T21:02:47.576Z,37.42
2022-12-20T21:05:14.391Z,38.00
2022-12-20T21:07:12.810Z,38.88
2022-12-20T21:09:14.944Z,39.63
2022-12-20T21:11:17.433Z,39.05
2022-12-20T21:13:19.389Z,36.75
2022-12-20T21:15:23.255Z,35.65
2022-12-20T21:17:25.482Z,36.58
2022-12-20T21:19:27.118Z,35.22
2022-12-20T21:21:29.063Z,34.05
2022-12-20T21:23:30.647Z,33.22
2022-12-20T21:25:32.636Z,32.17
2022-12-20T21:27:34.366Z,34.15
2022-12-20T21:29:36.137Z,36.25
2022-12-20T21:31:37.788Z,37.03
2022-12-20T21:33:39.960Z,36.90
2022-12-20T21:35:45.166Z,35.58
2022-12-20T21:37:50.135Z,37.30
2022-12-20T21:39:52.428Z,37.65
2022-12-20T21:41:59.958Z,36.83
2022-12-20T21:44:04.672Z,32.72
2022-12-20T21:46:11.287Z,32.05
2022-12-20T21:48:15.557Z,30.58
2022-12-20T21:50:17.259Z,31.90
2022-12-20T21:52:19.166Z,30.65
2022-12-20T21:54:20.919Z,28.67
2022-12-20T21:56:24.330Z,30.15
2022-12-20T21:58:27.629Z,31.00
2022-12-20T22:00:30.387Z,29.58
2022-12-20T22:02:32.206Z,30.27
2022-12-20T22:04:34.704Z,29.05
2022-12-20T22:06:36.383Z,29.65
2022-12-20T22:08:38.105Z,32.20
2022-12-20T22:10:39.848Z,37.50
2022-12-20T22:12:41.619Z,35.13
2022-12-20T22:14:43.282Z,30.95
2022-12-20T22:16:45.111Z,33.03
2022-12-20T22:18:51.495Z,34.10
2022-12-20T22:20:53.280Z,33.75
2022-12-20T22:22:55.013Z,35.13
2022-12-20T22:24:56.633Z,35.47
2022-12-20T22:27:01.992Z,36.00
2022-12-20T22:29:06.481Z,36.65
2022-12-20T22:31:09.412Z,37.20
2022-12-20T22:33:11.770Z,35.97
2022-12-20T22:35:16.422Z,34.65
2022-12-20T22:37:22.824Z,36.10
2022-12-20T22:39:24.558Z,32.92
2022-12-20T22:41:30.765Z,32.90
2022-12-20T22:43:32.564Z,33.20
2022-12-20T22:45:34.369Z,31.83
2022-12-20T22:47:36.322Z,31.88
2022-12-20T22:49:38.057Z,30.30
2022-12-20T22:51:39.743Z,29.73
2022-12-20T22:53:41.950Z,28.73
2022-12-20T22:55:43.568Z,29.02
2022-12-20T22:57:45.190Z,28.15
2022-12-20T22:59:46.831Z,28.10
2022-12-20T23:01:48.595Z,26.77
2022-12-20T23:03:50.651Z,27.70
2022-12-20T23:05:56.796Z,29.58
2022-12-20T23:07:58.535Z,28.60
2022-12-20T23:10:00.373Z,28.95
2022-12-20T23:12:20.573Z,27.15
2022-12-20T23:14:41.811Z,27.20
2022-12-20T23:16:43.688Z,26.95
2022-12-20T23:18:45.394Z,28.67
2022-12-20T23:21:11.115Z,28.95
2022-12-20T23:23:12.766Z,27.80
2022-12-20T23:25:21.168Z,28.83
2022-12-20T23:27:22.791Z,30.02
2022-12-20T23:29:24.691Z,28.98
2022-12-20T23:31:26.324Z,27.15
2022-12-20T23:33:28.296Z,29.23
2022-12-20T23:35:29.949Z,28.55
2022-12-20T23:37:33.571Z,30.38
2022-12-20T23:39:35.218Z,31.00
2022-12-20T23:41:36.901Z,30.88
2022-12-20T23:43:38.748Z,28.83
2022-12-20T23:45:40.350Z,30.85
2022-12-20T23:47:41.999Z,30.58
2022-12-20T23:49:43.639Z,28.48
2022-12-20T23:51:45.324Z,28.02
2022-12-20T23:53:51.191Z,28.02
2022-12-20T23:56:20.288Z,28.63
2022-12-20T23:58:21.988Z,28.42
